Time;durP1;ratioP1;P1;durP2;ratioP2;P2;SDS_P1;SDS_P2;PMS_P1;PMS_P2;Temp;Humidity;BMP_temperature;BMP_pressure;BME280_temperature;BME280_humidity;BME280_pressure;Samples;Min_cycle;Max_cycle;Signal;HPM_P1;HPM_P2
2022/09/10 00:01:59;;;;;;;4.10;1.30;;;;;;;14.85;100.00;96283.72;5099129;28;20208;-77
2022/09/10 00:04:29;;;;;;;6.37;1.73;;;;;;;14.80;100.00;96289.13;5115819;27;20299;-76
2022/09/10 00:06:57;;;;;;;2.57;1.90;;;;;;;14.69;100.00;96285.47;5095892;28;20226;-76
2022/09/10 00:09:26;;;;;;;2.30;1.73;;;;;;;14.66;100.00;96291.41;5103963;28;20200;-76
2022/09/10 00:11:54;;;;;;;6.57;2.40;;;;;;;14.64;100.00;96286.22;5102936;27;20239;-76
2022/09/10 00:14:23;;;;;;;2.83;1.70;;;;;;;14.67;100.00;96274.03;5097006;28;20203;-76
2022/09/10 00:16:51;;;;;;;2.80;1.80;;;;;;;14.64;100.00;96269.09;5108975;27;20913;-76
2022/09/10 00:19:20;;;;;;;2.50;1.70;;;;;;;14.59;100.00;96266.34;5101895;27;20211;-77
2022/09/10 00:21:48;;;;;;;4.37;1.77;;;;;;;14.55;100.00;96270.66;5100272;27;20218;-76
2022/09/10 00:24:16;;;;;;;2.80;1.80;;;;;;;14.63;100.00;96275.63;5096006;27;20220;-77
2022/09/10 00:26:43;;;;;;;3.80;2.13;;;;;;;14.69;100.00;96278.13;5103367;27;20453;-76
2022/09/10 00:29:17;;;;;;;2.83;1.73;;;;;;;14.71;100.00;96286.03;5108864;27;20219;-77
2022/09/10 00:31:44;;;;;;;4.43;1.80;;;;;;;14.67;100.00;96284.91;5109739;27;20203;-77
2022/09/10 00:34:12;;;;;;;2.23;1.80;;;;;;;14.71;100.00;96286.03;5106383;27;20203;-77
2022/09/10 00:36:42;;;;;;;4.13;1.80;;;;;;;14.76;100.00;96291.50;5103648;27;20214;-76
2022/09/10 00:39:11;;;;;;;3.07;1.90;;;;;;;14.82;100.00;96286.94;5123382;27;20188;-76
2022/09/10 00:41:39;;;;;;;3.33;1.73;;;;;;;14.83;100.00;96296.72;5091082;27;20295;-76
2022/09/10 00:44:30;;;;;;;2.40;1.80;;;;;;;14.82;100.00;96298.63;5097903;27;20219;-76
2022/09/10 00:46:59;;;;;;;3.43;1.70;;;;;;;14.84;100.00;96306.53;5103398;28;20219;-77
2022/09/10 00:49:33;;;;;;;2.53;1.60;;;;;;;14.87;100.00;96306.84;5114562;27;20200;-77
2022/09/10 00:52:02;;;;;;;3.87;1.67;;;;;;;14.89;100.00;96310.09;5101517;27;20208;-77
2022/09/10 00:54:32;;;;;;;3.13;2.10;;;;;;;14.78;100.00;96297.53;5096435;27;20200;-76
2022/09/10 00:57:06;;;;;;;4.10;1.70;;;;;;;14.76;100.00;96295.06;5094220;27;20228;-77
2022/09/10 00:59:34;;;;;;;3.17;1.67;;;;;;;14.77;100.00;96291.25;5093031;27;20203;-77
2022/09/10 01:02:02;;;;;;;2.87;1.80;;;;;;;14.77;100.00;96285.00;5106344;27;20199;-77
2022/09/10 01:04:31;;;;;;;3.10;1.90;;;;;;;14.79;100.00;96276.59;5095843;28;20216;-76
2022/09/10 01:06:59;;;;;;;2.30;1.80;;;;;;;14.76;100.00;96284.19;5116666;27;20196;-76
2022/09/10 01:09:29;;;;;;;3.50;1.53;;;;;;;14.77;100.00;96279.56;5112981;27;20239;-76
2022/09/10 01:12:08;;;;;;;2.73;1.97;;;;;;;14.75;100.00;96281.72;5099496;27;20228;-77
2022/09/10 01:14:47;;;;;;;3.17;1.70;;;;;;;14.75;100.00;96279.00;5106524;27;20203;-77
2022/09/10 01:17:27;;;;;;;1.77;1.50;;;;;;;14.76;100.00;96272.50;5118369;27;20196;-76
2022/09/10 01:20:17;;;;;;;3.10;1.90;;;;;;;14.65;100.00;96279.72;5113015;27;20267;-76
2022/09/10 01:23:05;;;;;;;2.53;1.50;;;;;;;14.59;100.00;96290.81;5098263;28;20212;-76
2022/09/10 01:25:43;;;;;;;4.23;1.80;;;;;;;14.62;100.00;96277.53;5092971;27;20251;-76
2022/09/10 01:28:19;;;;;;;2.27;1.90;;;;;;;14.61;100.00;96280.50;5106122;28;20262;-76
2022/09/10 01:30:53;;;;;;;2.57;2.37;;;;;;;14.51;100.00;96270.34;5097023;27;20252;-76
2022/09/10 01:33:25;;;;;;;6.27;1.80;;;;;;;14.50;100.00;96284.19;5093780;27;20211;-76
2022/09/10 01:35:57;;;;;;;2.80;1.80;;;;;;;14.54;100.00;96285.34;5092695;27;20236;-76
2022/09/10 01:38:27;;;;;;;4.20;1.90;;;;;;;14.54;100.00;96280.72;5097449;27;20298;-76
2022/09/10 01:40:56;;;;;;;3.20;1.70;;;;;;;14.52;100.00;96277.44;5108529;27;20287;-76
2022/09/10 01:43:27;;;;;;;5.57;2.30;;;;;;;14.56;100.00;96266.84;5103233;27;20195;-76
2022/09/10 01:46:14;;;;;;;6.57;2.00;;;;;;;14.53;100.00;96273.63;5100968;28;20223;-76
2022/09/10 01:49:03;;;;;;;5.23;1.90;;;;;;;14.49;100.00;96277.13;5106699;27;20239;-76
2022/09/10 01:51:43;;;;;;;5.70;1.90;;;;;;;14.52;100.00;96279.31;5104268;27;20203;-77
2022/09/10 01:54:26;;;;;;;4.27;2.00;;;;;;;14.49;100.00;96277.94;5117408;27;20192;-76
2022/09/10 01:57:07;;;;;;;6.10;2.00;;;;;;;14.43;100.00;96276.25;5108554;27;20230;-78
2022/09/10 01:59:43;;;;;;;2.67;1.93;;;;;;;14.49;100.00;96271.69;5107447;27;20187;-76
2022/09/10 02:02:15;;;;;;;4.50;1.90;;;;;;;14.47;100.00;96276.53;5095776;28;20204;-76
2022/09/10 02:04:45;;;;;;;3.83;2.00;;;;;;;14.47;100.00;96276.53;5120804;27;20215;-76
2022/09/10 02:07:14;;;;;;;2.20;1.90;;;;;;;14.45;100.00;96279.53;5103874;27;20238;-76
2022/09/10 02:09:42;;;;;;;5.03;1.93;;;;;;;14.48;100.00;96270.03;5102538;27;20246;-76
2022/09/10 02:12:17;;;;;;;1.77;1.60;;;;;;;14.48;100.00;96264.59;5106144;27;20228;-76
2022/09/10 02:14:58;;;;;;;4.63;1.80;;;;;;;14.42;100.00;96261.03;5123677;27;20206;-76
2022/09/10 02:17:38;;;;;;;3.00;1.77;;;;;;;14.38;100.00;96266.13;5099455;27;20195;-76
2022/09/10 02:20:10;;;;;;;5.63;1.90;;;;;;;14.36;100.00;96271.00;5098776;28;20200;-77
2022/09/10 02:22:42;;;;;;;4.13;1.73;;;;;;;14.38;100.00;96277.00;5097958;28;20212;-77
2022/09/10 02:25:09;;;;;;;4.60;1.87;;;;;;;14.38;100.00;96271.56;5098983;28;20319;-76
2022/09/10 02:27:38;;;;;;;3.10;1.77;;;;;;;14.42;100.00;96271.06;5096034;28;20201;-76
2022/09/10 02:30:08;;;;;;;3.50;1.93;;;;;;;14.36;100.00;96268.28;5104286;27;20200;-76
2022/09/10 02:32:37;;;;;;;2.53;1.80;;;;;;;14.48;100.00;96260.00;5102254;27;20196;-76
2022/09/10 02:35:05;;;;;;;3.47;1.90;;;;;;;14.44;100.00;96258.88;5109588;27;20210;-76
2022/09/10 02:37:32;;;;;;;3.87;1.80;;;;;;;14.48;100.00;96270.03;5114847;27;20304;-75
2022/09/10 02:40:00;;;;;;;3.77;2.23;;;;;;;14.49;100.00;96268.97;5107716;27;20264;-76
2022/09/10 02:42:27;;;;;;;2.97;1.60;;;;;;;14.54;100.00;96271.75;5098878;27;20235;-76
2022/09/10 02:44:55;;;;;;;4.00;1.60;;;;;;;14.45;100.00;96259.69;5110452;27;20208;-76
2022/09/10 02:47:23;;;;;;;1.90;1.70;;;;;;;14.43;100.00;96267.28;5092225;28;20200;-76
2022/09/10 02:49:50;;;;;;;2.27;1.60;;;;;;;14.37;100.00;96274.53;5094774;28;20269;-76
2022/09/10 02:52:17;;;;;;;3.17;1.63;;;;;;;14.43;100.00;96272.72;5093251;27;20194;-76
2022/09/10 02:54:45;;;;;;;5.03;1.50;;;;;;;14.47;100.00;96271.09;5094931;28;20235;-76
2022/09/10 02:57:12;;;;;;;3.13;1.73;;;;;;;14.41;100.00;96270.25;5093992;28;20231;-76
2022/09/10 02:59:39;;;;;;;3.50;1.60;;;;;;;14.40;100.00;96268.59;5105761;27;20203;-75
2022/09/10 03:02:06;;;;;;;3.97;1.87;;;;;;;14.43;100.00;96272.72;5103697;27;20210;-76
2022/09/10 03:04:34;;;;;;;2.73;1.70;;;;;;;14.45;100.00;96281.44;5099667;27;20254;-76
2022/09/10 03:07:02;;;;;;;3.30;1.80;;;;;;;14.43;100.00;96272.72;5100262;27;20316;-76
2022/09/10 03:09:29;;;;;;;3.53;1.60;;;;;;;14.45;100.00;96265.13;5117555;27;20215;-76
2022/09/10 03:11:57;;;;;;;1.70;1.50;;;;;;;14.47;100.00;96274.66;5098820;28;20234;-76
2022/09/10 03:14:24;;;;;;;3.53;1.80;;;;;;;14.50;100.00;96270.59;5105164;28;20204;-76
2022/09/10 03:16:52;;;;;;;2.20;1.73;;;;;;;14.52;100.00;96265.75;5104630;28;20208;-77
2022/09/10 03:19:19;;;;;;;1.97;1.53;;;;;;;14.52;100.00;96271.19;5106356;28;20208;-76
2022/09/10 03:21:48;;;;;;;2.90;1.60;;;;;;;14.53;100.00;96273.63;5119528;27;20211;-76
2022/09/10 03:24:15;;;;;;;3.53;1.63;;;;;;;14.55;100.00;96273.34;5092898;28;20211;-76
2022/09/10 03:26:43;;;;;;;4.90;1.93;;;;;;;14.51;100.00;96274.97;5094213;28;20204;-76
2022/09/10 03:29:10;;;;;;;3.00;1.77;;;;;;;14.46;100.00;96277.66;5099445;28;20267;-76
2022/09/10 03:31:39;;;;;;;2.53;1.60;;;;;;;14.43;100.00;96278.16;5101105;28;20207;-76
2022/09/10 03:34:07;;;;;;;3.60;1.60;;;;;;;14.44;100.00;96271.63;5094295;28;20265;-76
2022/09/10 03:36:34;;;;;;;1.50;1.40;;;;;;;14.35;100.00;96272.06;5094392;28;20230;-76
2022/09/10 03:39:03;;;;;;;2.47;1.60;;;;;;;14.30;100.00;96273.88;5090824;28;20196;-76
2022/09/10 03:41:31;;;;;;;2.63;1.63;;;;;;;14.29;100.00;96273.06;5099050;28;20204;-76
2022/09/10 03:44:00;;;;;;;6.17;1.90;;;;;;;14.32;100.00;96272.56;5097537;28;20277;-76
2022/09/10 03:46:27;;;;;;;3.17;1.80;;;;;;;14.33;100.00;96267.97;5101574;28;20215;-76
2022/09/10 03:48:57;;;;;;;2.60;1.70;;;;;;;14.30;100.00;96273.88;5100940;28;20230;-76
2022/09/10 03:51:26;;;;;;;5.37;2.00;;;;;;;14.31;100.00;96273.63;5091001;28;20204;-78
2022/09/10 03:53:53;;;;;;;2.97;1.80;;;;;;;14.24;100.00;96269.50;5098161;28;20206;-78
2022/09/10 03:56:23;;;;;;;2.93;1.83;;;;;;;14.23;100.00;96278.72;5109139;28;20227;-75
2022/09/10 03:58:50;;;;;;;3.57;1.93;;;;;;;14.21;100.00;96278.97;5099231;28;20215;-76
2022/09/10 04:01:18;;;;;;;4.17;2.30;;;;;;;14.23;100.00;96270.56;5101641;28;20188;-75
2022/09/10 04:03:48;;;;;;;2.67;1.93;;;;;;;14.22;100.00;96279.78;5096519;28;20540;-76
2022/09/10 04:06:16;;;;;;;3.70;2.07;;;;;;;14.27;100.00;96277.97;5094406;28;20224;-78
2022/09/10 04:08:43;;;;;;;3.23;1.80;;;;;;;14.26;100.00;96281.75;5094194;28;20223;-79
2022/09/10 04:11:13;;;;;;;3.20;2.10;;;;;;;14.23;100.00;96273.28;5096806;28;20310;-78
2022/09/10 04:13:42;;;;;;;1.90;1.60;;;;;;;14.23;100.00;96274.09;5097513;28;20215;-78
2022/09/10 04:16:11;;;;;;;3.90;1.70;;;;;;;14.26;100.00;96279.03;5102773;28;20204;-78
2022/09/10 04:18:39;;;;;;;3.77;1.87;;;;;;;14.21;100.00;96284.38;5095236;28;20212;-78
2022/09/10 04:21:06;;;;;;;3.57;2.10;;;;;;;14.19;100.00;96283.84;5099598;28;20224;-78
2022/09/10 04:23:34;;;;;;;3.77;2.50;;;;;;;14.20;100.00;96279.25;5094382;28;20215;-78
2022/09/10 04:26:11;;;;;;;3.10;1.90;;;;;;;14.24;100.00;96280.34;5096954;28;20243;-78
2022/09/10 04:28:38;;;;;;;3.43;1.90;;;;;;;14.23;100.00;96271.38;5097451;28;20214;-78
2022/09/10 04:31:07;;;;;;;3.80;1.90;;;;;;;14.23;100.00;96276.81;5091536;28;20292;-78
2022/09/10 04:33:34;;;;;;;3.00;1.87;;;;;;;14.24;100.00;96281.16;5098440;27;20203;-78
2022/09/10 04:36:02;;;;;;;5.73;2.30;;;;;;;14.29;100.00;96283.13;5101102;27;20296;-78
2022/09/10 04:38:31;;;;;;;4.53;2.10;;;;;;;14.38;100.00;96282.44;5099787;28;20299;-78
2022/09/10 04:41:00;;;;;;;3.57;2.03;;;;;;;14.37;100.00;96272.59;5101880;28;20200;-78
2022/09/10 04:43:28;;;;;;;4.83;2.10;;;;;;;14.26;100.00;96273.59;5100599;28;20235;-78
2022/09/10 04:45:56;;;;;;;3.90;1.80;;;;;;;14.14;100.00;96277.50;5107428;27;20219;-78
2022/09/10 04:48:26;;;;;;;2.77;2.00;;;;;;;14.12;100.00;96294.06;5107626;27;20200;-77
2022/09/10 04:50:54;;;;;;;2.40;1.80;;;;;;;14.20;100.00;96292.81;5091767;28;20249;-78
2022/09/10 04:53:22;;;;;;;3.03;1.90;;;;;;;14.16;100.00;96295.19;5104636;28;20192;-78
2022/09/10 04:55:51;;;;;;;2.23;1.60;;;;;;;14.19;100.00;96289.28;5102824;27;20203;-78
2022/09/10 04:58:18;;;;;;;5.23;2.20;;;;;;;14.22;100.00;96287.94;5094861;27;20196;-78
2022/09/10 05:00:46;;;;;;;5.00;2.03;;;;;;;14.16;100.00;96288.94;5094133;27;20214;-78
2022/09/10 05:03:13;;;;;;;4.80;2.40;;;;;;;14.12;100.00;96285.13;5102687;27;20279;-78
2022/09/10 05:05:46;;;;;;;3.30;2.17;;;;;;;14.15;100.00;96293.56;5105677;27;20231;-78
2022/09/10 05:08:14;;;;;;;4.37;2.00;;;;;;;14.21;100.00;96289.81;5101861;27;20200;-78
2022/09/10 05:10:45;;;;;;;5.87;2.10;;;;;;;14.24;100.00;96299.38;5100966;27;20319;-78
2022/09/10 05:13:12;;;;;;;3.77;2.03;;;;;;;14.21;100.00;96292.53;5101455;28;20204;-78
2022/09/10 05:15:40;;;;;;;3.77;1.87;;;;;;;14.12;100.00;96285.91;5091766;28;20198;-78
2022/09/10 05:18:08;;;;;;;4.10;2.23;;;;;;;14.10;100.00;96290.78;5114967;27;20295;-78
2022/09/10 05:20:38;;;;;;;6.50;2.50;;;;;;;14.12;100.00;96298.69;5106626;27;20204;-78
2022/09/10 05:23:08;;;;;;;3.43;2.27;;;;;;;14.12;100.00;96299.50;5097191;27;20224;-78
2022/09/10 05:25:36;;;;;;;2.50;2.10;;;;;;;14.10;100.00;96288.09;5100407;27;20223;-78
2022/09/10 05:28:04;;;;;;;2.57;2.07;;;;;;;14.17;100.00;96294.13;5101552;27;20223;-78
2022/09/10 05:30:32;;;;;;;5.17;2.57;;;;;;;14.15;100.00;96287.31;5096922;27;20208;-78
2022/09/10 05:33:00;;;;;;;3.97;2.30;;;;;;;14.10;100.00;96289.97;5101015;28;20201;-78
2022/09/10 05:35:29;;;;;;;4.40;2.70;;;;;;;14.12;100.00;96295.97;5104861;27;20204;-78
2022/09/10 05:37:56;;;;;;;6.27;3.17;;;;;;;14.18;100.00;96303.94;5101685;27;20280;-78
2022/09/10 05:40:25;;;;;;;3.00;2.40;;;;;;;14.21;100.00;96303.41;5098465;28;20206;-79
2022/09/10 05:42:53;;;;;;;4.87;2.70;;;;;;;14.27;100.00;96305.13;5097201;27;20214;-78
2022/09/10 05:45:22;;;;;;;7.83;2.37;;;;;;;14.22;100.00;96310.47;5093503;27;20242;-77
2022/09/10 05:47:50;;;;;;;3.07;2.00;;;;;;;14.22;100.00;96310.47;5118394;27;20208;-77
2022/09/10 05:50:21;;;;;;;2.37;1.97;;;;;;;14.21;100.00;96308.81;5102425;27;20196;-77
2022/09/10 05:52:49;;;;;;;2.57;1.73;;;;;;;14.23;100.00;96306.69;5097434;27;20215;-77
2022/09/10 05:55:17;;;;;;;4.63;2.17;;;;;;;14.28;100.00;96306.75;5095921;27;20290;-77
2022/09/10 05:57:47;;;;;;;3.90;2.13;;;;;;;14.29;100.00;96310.31;5107763;27;20219;-77
2022/09/10 06:00:17;;;;;;;3.87;1.90;;;;;;;14.30;100.00;96318.16;5097139;27;20279;-77
2022/09/10 06:02:53;;;;;;;2.13;1.90;;;;;;;14.31;100.00;96310.84;5094857;27;20269;-77
2022/09/10 06:05:27;;;;;;;3.27;2.13;;;;;;;14.28;100.00;96325.78;5096184;28;20219;-76
2022/09/10 06:07:55;;;;;;;3.67;1.60;;;;;;;14.29;100.00;96313.81;5100535;27;20203;-77
2022/09/10 06:10:22;;;;;;;2.33;1.90;;;;;;;14.33;100.00;96323.09;5101825;28;20203;-77
2022/09/10 06:12:53;;;;;;;2.50;2.00;;;;;;;14.33;100.00;96323.09;5094680;27;20219;-76
2022/09/10 06:15:21;;;;;;;2.83;1.70;;;;;;;14.35;100.00;96325.56;5091908;27;20200;-77
2022/09/10 06:17:57;;;;;;;2.70;2.33;;;;;;;14.30;100.00;96334.47;5099233;28;20207;-77
2022/09/10 06:20:25;;;;;;;3.73;1.63;;;;;;;14.36;100.00;96344.34;5107961;27;20208;-76
2022/09/10 06:22:53;;;;;;;5.23;1.97;;;;;;;14.36;100.00;96352.50;5103773;27;20207;-76
2022/09/10 06:25:21;;;;;;;3.70;1.50;;;;;;;14.30;100.00;96344.50;5094734;28;20203;-77
2022/09/10 06:27:48;;;;;;;5.40;2.10;;;;;;;14.32;100.00;96356.78;5094866;27;20200;-77
2022/09/10 06:30:20;;;;;;;5.50;1.60;;;;;;;14.36;100.00;96343.50;5105790;27;20203;-77
2022/09/10 06:32:48;;;;;;;3.53;2.00;;;;;;;14.42;100.00;96336.25;5093141;27;20200;-77
2022/09/10 06:35:15;;;;;;;3.20;2.40;;;;;;;14.47;100.00;96358.03;5096019;27;20485;-76
2022/09/10 06:37:44;;;;;;;3.40;2.40;;;;;;;14.56;100.00;96360.06;5094460;28;20226;-77
2022/09/10 06:40:12;;;;;;;3.10;1.73;;;;;;;14.61;100.00;96367.47;5096114;27;20227;-77
2022/09/10 06:42:39;;;;;;;5.47;3.53;;;;;;;14.58;100.00;96368.78;5099785;27;20195;-77
2022/09/10 06:45:13;;;;;;;2.93;1.87;;;;;;;14.65;100.00;96363.16;5113951;27;20206;-77
2022/09/10 06:48:05;;;;;;;4.33;1.60;;;;;;;14.67;100.00;96361.00;5116444;27;20302;-77
2022/09/10 06:50:50;;;;;;;2.57;1.83;;;;;;;14.69;100.00;96358.84;5096744;28;20204;-77
2022/09/10 06:53:20;;;;;;;3.10;2.50;;;;;;;14.70;100.00;96361.31;5094855;27;20208;-77
2022/09/10 06:55:50;;;;;;;4.57;1.90;;;;;;;14.72;100.00;96363.75;5108398;27;20899;-77
2022/09/10 06:58:19;;;;;;;3.20;1.87;;;;;;;14.74;100.00;96357.00;5101910;28;20200;-77
2022/09/10 07:00:46;;;;;;;3.23;1.97;;;;;;;14.76;100.00;96359.47;5104012;27;20193;-77
2022/09/10 07:03:19;;;;;;;4.70;1.70;;;;;;;14.70;100.00;96357.78;5094031;27;20195;-76
2022/09/10 07:05:46;;;;;;;2.27;1.90;;;;;;;14.70;100.00;96355.06;5095442;27;20215;-77
2022/09/10 07:08:16;;;;;;;4.93;1.80;;;;;;;14.72;100.00;96361.03;5097467;27;20291;-77
2022/09/10 07:10:45;;;;;;;3.97;1.80;;;;;;;14.79;100.00;96374.44;5103091;27;20224;-77
2022/09/10 07:13:12;;;;;;;3.00;1.90;;;;;;;14.82;100.00;96368.47;5098407;28;20207;-77
2022/09/10 07:15:46;;;;;;;3.03;1.80;;;;;;;14.85;100.00;96378.84;5089181;28;20354;-77
2022/09/10 07:18:14;;;;;;;6.97;2.57;;;;;;;14.89;100.00;96378.06;5092461;28;20204;-76
2022/09/10 07:20:44;;;;;;;3.67;2.50;;;;;;;14.97;100.00;96383.03;5094360;27;20208;-76
2022/09/10 07:23:12;;;;;;;4.40;2.30;;;;;;;14.98;100.00;96381.16;5098177;28;20204;-77
2022/09/10 07:25:39;;;;;;;2.30;1.80;;;;;;;14.98;100.00;96384.69;5091791;28;20226;-76
2022/09/10 07:28:12;;;;;;;3.67;1.73;;;;;;;14.97;100.00;96387.69;5107698;28;20214;-77
2022/09/10 07:30:42;;;;;;;2.53;1.77;;;;;;;14.96;100.00;96392.31;5105704;28;20202;-77
2022/09/10 07:33:11;;;;;;;3.30;1.70;;;;;;;15.04;100.00;96388.28;5097878;28;20259;-77
2022/09/10 07:35:40;;;;;;;4.90;1.73;;;;;;;15.06;100.00;96395.09;5109440;28;20276;-76
2022/09/10 07:38:15;;;;;;;2.70;1.50;;;;;;;15.08;100.00;96390.22;5098961;28;20199;-77
2022/09/10 07:40:43;;;;;;;6.10;2.10;;;;;;;15.13;100.00;96389.47;5099581;28;20211;-77
2022/09/10 07:43:10;;;;;;;2.33;1.70;;;;;;;15.05;100.00;96382.59;5099909;28;20196;-77
2022/09/10 07:45:39;;;;;;;3.10;1.60;;;;;;;15.03;100.00;96383.94;5091426;28;20207;-77
2022/09/10 07:48:06;;;;;;;3.30;1.60;;;;;;;14.97;100.00;96393.91;5107123;28;20191;-77
2022/09/10 07:50:38;;;;;;;2.80;2.20;;;;;;;15.05;100.00;96392.66;5099733;28;20211;-76
2022/09/10 07:53:06;;;;;;;3.57;1.97;;;;;;;15.11;100.00;96387.00;5094332;28;20211;-77
2022/09/10 07:55:36;;;;;;;3.37;1.60;;;;;;;15.18;100.00;96389.50;5102499;28;20206;-77
2022/09/10 07:58:04;;;;;;;2.83;1.60;;;;;;;15.14;100.00;96381.03;5098222;28;20207;-77
2022/09/10 08:00:32;;;;;;;4.00;2.07;;;;;;;15.28;100.00;96386.06;5092945;28;20414;-77
2022/09/10 08:03:05;;;;;;;2.30;2.10;;;;;;;15.34;100.00;96387.75;5100510;28;20237;-77
2022/09/10 08:05:33;;;;;;;2.17;1.80;;;;;;;15.36;100.00;96393.75;5099988;27;20211;-77
2022/09/10 08:08:02;;;;;;;2.80;1.83;;;;;;;15.34;100.00;96393.19;5098516;28;20210;-77
2022/09/10 08:10:29;;;;;;;2.27;1.80;;;;;;;15.38;100.00;96395.13;5099647;27;20212;-77
2022/09/10 08:12:59;;;;;;;3.17;2.20;;;;;;;15.38;100.00;96400.59;5095102;27;20272;-76
2022/09/10 08:15:26;;;;;;;2.63;2.17;;;;;;;15.40;100.00;96397.56;5112048;27;20199;-77
2022/09/10 08:17:54;;;;;;;2.07;1.70;;;;;;;15.40;100.00;96398.41;5114410;27;20259;-77
2022/09/10 08:20:25;;;;;;;1.63;1.50;;;;;;;15.39;100.00;96401.41;5102488;28;20216;-77
2022/09/10 08:22:57;;;;;;;2.67;1.30;;;;;;;15.43;100.00;96405.22;5103071;28;20196;-77
2022/09/10 08:25:24;;;;;;;1.53;1.40;;;;;;;15.46;100.00;96404.72;5103519;27;20310;-77
2022/09/10 08:27:51;;;;;;;3.47;1.50;;;;;;;15.57;100.00;96411.91;5096017;27;20215;-77
2022/09/10 08:30:19;;;;;;;4.40;2.20;;;;;;;15.60;100.00;96408.66;5105849;27;20203;-77
2022/09/10 08:32:47;;;;;;;1.80;1.70;;;;;;;15.62;100.00;96411.97;5102504;27;20197;-77
2022/09/10 08:35:14;;;;;;;3.43;1.70;;;;;;;15.61;100.00;96407.59;5098237;28;20212;-77
2022/09/10 08:37:42;;;;;;;1.67;1.50;;;;;;;15.68;100.00;96410.91;5102733;27;20301;-77
2022/09/10 08:40:12;;;;;;;2.97;1.60;;;;;;;15.68;100.00;96410.91;5097352;27;20226;-77
2022/09/10 08:42:44;;;;;;;1.73;1.40;;;;;;;15.67;100.00;96420.16;5096360;27;20195;-76
2022/09/10 08:45:16;;;;;;;3.07;1.93;;;;;;;15.68;100.00;96418.25;5097570;27;20206;-76
2022/09/10 08:47:53;;;;;;;4.97;1.80;;;;;;;15.69;100.00;96428.88;5101203;27;20232;-76
2022/09/10 08:50:29;;;;;;;3.43;1.40;;;;;;;15.69;100.00;96428.88;5109526;27;20290;-77
2022/09/10 08:53:04;;;;;;;3.13;1.70;;;;;;;15.67;100.00;96431.03;5102424;27;20302;-76
2022/09/10 08:55:35;;;;;;;2.80;1.93;;;;;;;15.61;100.00;96429.38;5112404;27;20201;-77
2022/09/10 08:58:12;;;;;;;1.73;1.60;;;;;;;15.68;100.00;96429.97;5099462;28;20207;-77
2022/09/10 09:00:43;;;;;;;2.60;1.87;;;;;;;15.72;100.00;96433.81;5095073;27;20223;-77
2022/09/10 09:03:21;;;;;;;3.23;2.20;;;;;;;15.69;100.00;96436.22;5096234;28;20220;-77
2022/09/10 09:05:52;;;;;;;3.67;1.50;;;;;;;15.60;100.00;96433.16;5096628;28;20207;-76
2022/09/10 09:08:26;;;;;;;3.87;1.77;;;;;;;15.54;100.00;96425.22;5097583;28;20227;-77
2022/09/10 09:11:03;;;;;;;2.67;1.50;;;;;;;15.54;100.00;96431.50;5093124;27;20287;-77
2022/09/10 09:13:53;;;;;;;2.13;1.63;;;;;;;15.59;100.00;96441.59;5107305;28;20302;-77
2022/09/10 09:16:36;;;;;;;2.13;1.57;;;;;;;15.72;100.00;96436.53;5100675;27;20220;-77
2022/09/10 09:19:14;;;;;;;2.53;1.63;;;;;;;15.81;100.00;96432.25;5102710;27;20228;-77
2022/09/10 09:21:51;;;;;;;4.80;1.60;;;;;;;15.98;100.00;96434.00;5106134;27;20211;-76
2022/09/10 09:24:24;;;;;;;2.20;1.73;;;;;;;16.08;100.00;96440.31;5115829;27;20285;-77
2022/09/10 09:26:59;;;;;;;2.13;1.83;;;;;;;16.20;100.00;96448.28;5096985;28;20439;-76
2022/09/10 09:29:32;;;;;;;3.07;2.00;;;;;;;16.23;100.00;96436.88;5096952;27;20200;-77
2022/09/10 09:32:04;;;;;;;5.00;2.17;;;;;;;16.36;100.00;96436.41;5098173;28;20204;-77
2022/09/10 09:34:36;;;;;;;4.27;1.90;;;;;;;16.44;100.00;96435.06;5098318;28;20196;-77
2022/09/10 09:37:11;;;;;;;3.13;2.53;;;;;;;16.45;100.00;96443.00;5103841;27;20208;-77
2022/09/10 09:39:47;;;;;;;4.53;2.00;;;;;;;16.45;100.00;96440.25;5092168;27;20202;-76
2022/09/10 09:42:21;;;;;;;2.27;1.83;;;;;;;16.56;100.00;96444.69;5103226;27;20602;-77
2022/09/10 09:44:56;;;;;;;1.53;1.27;;;;;;;16.68;100.00;96438.19;5096572;28;20207;-74
2022/09/10 09:47:23;;;;;;;2.83;1.20;;;;;;;16.74;100.00;96442.63;5101870;27;20226;-74
2022/09/10 09:49:53;;;;;;;3.23;1.30;;;;;;;16.74;100.00;96439.88;5109035;27;20207;-74
2022/09/10 09:52:22;;;;;;;1.77;1.23;;;;;;;16.81;100.00;96435.81;5127639;27;20203;-74
2022/09/10 09:54:54;;;;;;;1.43;1.00;;;;;;;17.13;100.00;96429.34;5093443;27;20239;-74
2022/09/10 09:57:22;;;;;;;1.80;1.03;;;;;;;17.47;100.00;96433.22;5100496;28;20220;-74
2022/09/10 09:59:51;;;;;;;2.60;1.10;;;;;;;17.46;100.00;96439.78;5102771;27;20215;-74
2022/09/10 10:02:20;;;;;;;2.23;1.13;;;;;;;17.30;100.00;96430.75;5097870;27;20200;-74
2022/09/10 10:05:04;;;;;;;1.60;1.10;;;;;;;17.52;100.00;96426.97;5104198;27;20203;-74
2022/09/10 10:07:33;;;;;;;2.07;1.40;;;;;;;17.58;100.00;96423.13;5095197;27;20234;-74
2022/09/10 10:10:02;;;;;;;3.50;1.10;;;;;;;17.64;100.00;96417.44;5111419;27;20259;-74
2022/09/10 10:12:31;;;;;;;2.03;1.20;;;;;;;17.64;100.00;96425.63;5115220;27;20235;-74
2022/09/10 10:14:59;;;;;;;2.13;1.30;;;;;;;17.59;100.00;96420.16;5104337;27;20229;-74
2022/09/10 10:17:34;;;;;;;1.93;1.57;;;;;;;17.56;100.00;96417.13;5121339;27;20211;-74
2022/09/10 10:20:09;;;;;;;1.17;1.07;;;;;;;17.57;100.00;96425.06;5101229;27;20214;-74
2022/09/10 10:22:37;;;;;;;2.07;1.37;;;;;;;17.47;100.00;96426.94;5124089;27;20286;-74
2022/09/10 10:25:06;;;;;;;0.90;0.90;;;;;;;17.28;100.00;96422.00;5107660;27;20207;-74
2022/09/10 10:27:36;;;;;;;1.97;1.10;;;;;;;17.23;100.00;96416.56;5102752;27;20229;-74
2022/09/10 10:30:22;;;;;;;1.13;0.90;;;;;;;17.22;100.00;96414.09;5099369;28;20210;-74
2022/09/10 10:32:54;;;;;;;2.60;1.37;;;;;;;17.22;100.00;96412.19;5096096;28;20218;-74
2022/09/10 10:35:46;;;;;;;1.83;0.90;;;;;;;17.30;100.00;96411.66;5090964;28;20204;-74
2022/09/10 10:38:31;;;;;;;1.43;0.90;;;;;;;17.22;100.00;96409.47;5123787;27;20200;-74
2022/09/10 10:41:37;;;;;;;1.90;0.90;;;;;;;17.23;100.00;96405.63;5114927;27;20199;-74
2022/09/10 10:44:28;;;;;;;3.70;2.63;;;;;;;17.27;100.00;96406.72;5093574;27;20215;-74
2022/09/10 10:47:16;;;;;;;2.23;1.20;;;;;;;17.30;100.00;96403.47;5106730;27;20245;-74
2022/09/10 10:49:53;;;;;;;1.50;1.00;;;;;;;17.45;100.00;96401.81;5111269;27;20214;-74
2022/09/10 10:52:30;;;;;;;2.07;0.93;;;;;;;17.47;100.00;96389.56;5096204;27;20233;-74
2022/09/10 10:55:13;;;;;;;1.00;0.87;;;;;;;17.52;100.00;96403.22;5122064;27;20274;-74
2022/09/10 10:57:57;;;;;;;2.80;1.20;;;;;;;17.69;100.00;96401.03;5107778;27;20226;-74
2022/09/10 11:00:24;;;;;;;0.77;0.77;;;;;;;18.06;100.00;96392.53;5092331;28;20192;-74
2022/09/10 11:02:59;;;;;;;1.20;0.70;;;;;;;18.29;100.00;96384.84;5100954;28;20212;-77
2022/09/10 11:05:30;;;;;;;1.10;0.70;;;;;;;18.34;100.00;96391.09;5111076;27;20298;-77
2022/09/10 11:08:04;;;;;;;0.60;0.60;;;;;;;18.23;99.45;96381.28;5103421;27;20215;-77
2022/09/10 11:10:36;;;;;;;1.67;0.67;;;;;;;18.11;99.65;96384.34;5092658;27;20218;-77
2022/09/10 11:13:09;;;;;;;1.10;0.80;;;;;;;18.01;98.25;96387.09;5121869;27;20199;-77
2022/09/10 11:15:41;;;;;;;1.83;0.80;;;;;;;17.97;98.99;96388.72;5095900;28;20204;-76
2022/09/10 11:18:16;;;;;;;1.67;0.80;;;;;;;17.96;99.34;96398.00;5122422;27;20319;-77
2022/09/10 11:20:46;;;;;;;1.10;0.80;;;;;;;17.96;97.63;96387.06;5111173;27;20203;-77
2022/09/10 11:23:26;;;;;;;2.27;0.80;;;;;;;18.03;98.48;96382.16;5111934;27;20256;-77
2022/09/10 11:26:01;;;;;;;1.80;0.80;;;;;;;18.14;98.07;96374.75;5122166;27;20293;-77
2022/09/10 11:28:34;;;;;;;0.93;0.73;;;;;;;18.12;97.17;96372.28;5103423;27;20249;-76
2022/09/10 11:31:10;;;;;;;2.37;0.70;;;;;;;18.30;97.10;96367.31;5111402;28;20207;-77
2022/09/10 11:33:45;;;;;;;3.23;0.80;;;;;;;18.49;96.58;96371.06;5112728;28;20211;-74
2022/09/10 11:36:20;;;;;;;1.13;0.90;;;;;;;18.59;95.72;96376.53;5103319;28;20219;-74
2022/09/10 11:39:01;;;;;;;1.33;0.90;;;;;;;18.47;96.15;96365.88;5095584;28;20211;-74
2022/09/10 11:41:31;;;;;;;1.77;0.80;;;;;;;18.33;97.33;96366.78;5098053;28;20216;-74
2022/09/10 11:44:13;;;;;;;2.70;1.00;;;;;;;18.36;96.78;96369.78;5104049;27;20214;-74
2022/09/10 11:46:44;;;;;;;2.97;0.93;;;;;;;18.35;97.68;96361.84;5118320;27;20214;-74